Time;durP1;ratioP1;P1;durP2;ratioP2;P2;SDS_P1;SDS_P2;PMS_P1;PMS_P2;Temp;Humidity;BMP_temperature;BMP_pressure;BME280_temperature;BME280_humidity;BME280_pressure;Samples;Min_cycle;Max_cycle;Signal;HPM_P1;HPM_P2
2023/10/05 00:02:10;;;;;;;9.10;8.80;;;8.60;99.90;;;;;;5142450;27;20303;-81
2023/10/05 00:04:41;;;;;;;9.07;8.77;;;8.60;99.90;;;;;;5143283;27;20224;-81
2023/10/05 00:07:10;;;;;;;8.80;8.60;;;8.60;99.90;;;;;;5142860;27;20327;-81
2023/10/05 00:09:40;;;;;;;9.30;9.00;;;8.50;99.90;;;;;;5142741;27;20228;-81
2023/10/05 00:12:12;;;;;;;9.40;9.10;;;8.50;99.90;;;;;;5142228;27;20239;-81
2023/10/05 00:14:40;;;;;;;9.03;8.73;;;8.50;99.90;;;;;;5145887;27;20238;-81
2023/10/05 00:17:08;;;;;;;8.80;8.60;;;8.50;99.90;;;;;;5146154;27;20240;-81
2023/10/05 00:19:38;;;;;;;9.10;8.80;;;8.50;99.90;;;;;;5146710;27;20220;-80
2023/10/05 00:22:05;;;;;;;8.77;8.57;;;8.60;99.90;;;;;;5145771;27;20228;-80
2023/10/05 00:24:35;;;;;;;8.80;8.60;;;8.60;99.90;;;;;;5146316;27;20232;-81
2023/10/05 00:27:05;;;;;;;8.77;8.57;;;8.50;99.90;;;;;;5145929;27;20277;-81
2023/10/05 00:29:40;;;;;;;9.20;8.90;;;8.50;99.90;;;;;;5145858;27;20216;-81
2023/10/05 00:32:20;;;;;;;8.87;8.67;;;8.50;99.90;;;;;;5145681;27;20263;-81
2023/10/05 00:34:52;;;;;;;8.60;8.40;;;8.50;99.90;;;;;;5145675;27;20235;-81
2023/10/05 00:37:19;;;;;;;8.70;8.50;;;8.50;99.90;;;;;;5145542;27;20224;-82
2023/10/05 00:39:49;;;;;;;8.90;8.70;;;8.50;99.90;;;;;;5145824;27;20267;-79
2023/10/05 00:42:16;;;;;;;8.93;8.70;;;8.50;99.90;;;;;;5145779;27;20232;-80
2023/10/05 00:44:44;;;;;;;8.60;8.40;;;8.50;99.90;;;;;;5145987;27;20232;-81
2023/10/05 00:47:13;;;;;;;8.57;8.37;;;8.50;99.90;;;;;;5145810;27;20227;-81
2023/10/05 00:49:51;;;;;;;8.60;8.40;;;8.50;99.90;;;;;;5147457;27;20228;-81
2023/10/05 00:52:24;;;;;;;8.60;8.40;;;8.50;99.90;;;;;;5144435;27;20246;-81
2023/10/05 00:54:55;;;;;;;9.07;8.80;;;8.50;99.90;;;;;;5145690;27;20236;-80
2023/10/05 00:57:24;;;;;;;8.90;8.70;;;8.40;99.90;;;;;;5145503;27;20216;-81
2023/10/05 00:59:56;;;;;;;8.77;8.57;;;8.40;99.90;;;;;;5145111;27;20225;-81
2023/10/05 01:02:26;;;;;;;9.00;8.77;;;8.40;99.90;;;;;;5145353;27;21104;-81
2023/10/05 01:05:14;;;;;;;9.10;8.80;;;8.40;99.90;;;;;;5146378;27;20231;-81
2023/10/05 01:07:49;;;;;;;8.90;8.70;;;8.40;99.90;;;;;;5146345;27;20232;-81
2023/10/05 01:10:29;;;;;;;8.90;8.70;;;8.40;99.90;;;;;;5145897;27;20231;-81
2023/10/05 01:12:57;;;;;;;9.10;8.80;;;8.40;99.90;;;;;;5145948;27;20263;-81
2023/10/05 01:15:31;;;;;;;8.97;8.73;;;8.40;99.90;;;;;;5146735;27;20267;-81
2023/10/05 01:17:59;;;;;;;9.17;8.87;;;8.40;99.90;;;;;;5145553;27;20224;-80
2023/10/05 01:20:30;;;;;;;9.30;9.00;;;8.30;99.90;;;;;;5144976;27;20228;-81
2023/10/05 01:23:04;;;;;;;9.10;8.80;;;8.30;99.90;;;;;;5144620;27;20348;-81
2023/10/05 01:25:31;;;;;;;9.10;8.80;;;8.30;99.90;;;;;;5144327;27;20287;-81
2023/10/05 01:27:59;;;;;;;8.93;8.70;;;8.30;99.90;;;;;;5145069;27;20228;-80
2023/10/05 01:30:26;;;;;;;9.43;9.13;;;8.20;99.90;;;;;;5144981;27;20406;-81
2023/10/05 01:32:54;;;;;;;9.10;8.80;;;8.20;99.90;;;;;;5143905;27;20243;-82
2023/10/05 01:35:23;;;;;;;9.17;8.87;;;8.20;99.90;;;;;;5145241;27;20274;-81
2023/10/05 01:37:53;;;;;;;9.33;9.03;;;8.10;99.90;;;;;;5144358;27;20380;-81
2023/10/05 01:40:25;;;;;;;9.07;8.77;;;8.10;99.90;;;;;;5145009;27;20246;-80
2023/10/05 01:42:54;;;;;;;9.20;8.90;;;8.10;99.90;;;;;;5145571;27;20235;-82
2023/10/05 01:45:25;;;;;;;9.33;9.03;;;8.00;99.90;;;;;;5145142;27;20260;-80
2023/10/05 01:47:54;;;;;;;9.20;8.90;;;8.00;99.90;;;;;;5145667;27;20283;-80
2023/10/05 01:50:22;;;;;;;9.40;9.10;;;8.00;99.90;;;;;;5148091;27;20239;-81
2023/10/05 01:52:56;;;;;;;9.30;9.00;;;8.00;99.90;;;;;;5144301;27;20268;-81
2023/10/05 01:55:27;;;;;;;9.50;9.20;;;8.00;99.90;;;;;;5145374;27;20236;-80
2023/10/05 01:57:54;;;;;;;9.40;9.10;;;8.00;99.90;;;;;;5144339;27;20256;-81
2023/10/05 02:00:23;;;;;;;9.20;8.90;;;7.90;99.90;;;;;;5144212;27;20290;-81
2023/10/05 02:02:52;;;;;;;9.23;8.93;;;7.90;99.90;;;;;;5143965;27;20293;-81
2023/10/05 02:05:21;;;;;;;9.23;8.93;;;7.90;99.90;;;;;;5143651;27;20290;-81
2023/10/05 02:07:50;;;;;;;8.80;8.60;;;7.80;99.90;;;;;;5144210;27;20385;-81
2023/10/05 02:10:20;;;;;;;9.03;8.73;;;7.80;99.90;;;;;;5144279;27;20208;-81
2023/10/05 02:12:54;;;;;;;9.50;9.20;;;7.80;99.90;;;;;;5143569;27;20242;-81
2023/10/05 02:15:28;;;;;;;9.20;8.90;;;7.80;99.90;;;;;;5145004;27;20277;-80
2023/10/05 02:17:56;;;;;;;9.10;8.80;;;7.70;99.90;;;;;;5144008;27;20231;-82
2023/10/05 02:20:38;;;;;;;9.30;9.00;;;7.70;99.90;;;;;;5144365;27;20220;-80
2023/10/05 02:23:24;;;;;;;9.20;8.90;;;7.70;99.90;;;;;;5143627;27;20236;-80
2023/10/05 02:26:02;;;;;;;9.20;8.90;;;7.60;99.90;;;;;;5144061;27;20231;-81
2023/10/05 02:28:33;;;;;;;9.43;9.13;;;7.70;99.90;;;;;;5144150;27;20224;-81
2023/10/05 02:31:05;;;;;;;9.20;8.90;;;7.70;99.90;;;;;;5143986;27;20230;-82
2023/10/05 02:33:33;;;;;;;9.53;9.23;;;7.70;99.90;;;;;;5144041;27;20234;-81
2023/10/05 02:36:11;;;;;;;9.30;9.00;;;7.70;99.90;;;;;;5143219;27;20268;-80
2023/10/05 02:38:47;;;;;;;9.03;8.73;;;7.60;99.90;;;;;;5143952;27;20231;-81
2023/10/05 02:41:16;;;;;;;9.23;8.93;;;7.50;99.90;;;;;;5146844;27;20220;-80
2023/10/05 02:43:52;;;;;;;9.20;8.90;;;7.50;99.90;;;;;;5152026;27;20236;-80
2023/10/05 02:46:20;;;;;;;9.23;8.93;;;7.50;99.90;;;;;;5152300;27;20224;-81
2023/10/05 02:48:49;;;;;;;9.07;8.80;;;7.50;99.90;;;;;;5152041;27;20228;-80
2023/10/05 02:51:18;;;;;;;8.80;8.60;;;7.50;99.90;;;;;;5148645;27;20239;-81
2023/10/05 02:53:46;;;;;;;8.70;8.50;;;7.50;99.90;;;;;;5147041;27;20243;-80
2023/10/05 02:56:22;;;;;;;9.13;8.83;;;7.50;99.90;;;;;;5147855;27;20265;-81
2023/10/05 02:58:54;;;;;;;8.90;8.70;;;7.50;99.90;;;;;;5146305;27;20239;-81
2023/10/05 03:01:22;;;;;;;9.10;8.80;;;7.50;99.90;;;;;;5144516;27;20216;-81
2023/10/05 03:03:51;;;;;;;9.30;9.00;;;7.60;99.90;;;;;;5144342;27;20323;-81
2023/10/05 03:06:22;;;;;;;8.70;8.50;;;7.60;99.90;;;;;;5144412;27;20232;-80
2023/10/05 03:08:54;;;;;;;8.70;8.50;;;7.60;99.90;;;;;;5144010;27;20319;-80
2023/10/05 03:11:21;;;;;;;9.00;8.80;;;7.70;99.90;;;;;;5143702;27;20224;-81
2023/10/05 03:13:50;;;;;;;8.90;8.70;;;7.60;99.90;;;;;;5142585;27;20306;-81
2023/10/05 03:16:21;;;;;;;8.87;8.67;;;7.70;99.90;;;;;;5143137;27;20240;-80
2023/10/05 03:18:49;;;;;;;8.90;8.70;;;7.70;99.90;;;;;;5143184;27;20237;-81
2023/10/05 03:21:18;;;;;;;8.70;8.50;;;7.70;99.90;;;;;;5143260;27;20232;-81
2023/10/05 03:23:46;;;;;;;8.60;8.40;;;7.70;99.90;;;;;;5143404;27;20232;-81
2023/10/05 03:26:18;;;;;;;8.60;8.40;;;7.70;99.90;;;;;;5143681;27;20220;-81
2023/10/05 03:28:45;;;;;;;8.60;8.40;;;7.70;99.90;;;;;;5143044;27;20232;-80
2023/10/05 03:31:25;;;;;;;8.60;8.40;;;7.70;99.90;;;;;;5143242;27;20277;-81
2023/10/05 03:33:53;;;;;;;8.90;8.70;;;7.70;99.90;;;;;;5143857;27;20287;-81
2023/10/05 03:36:20;;;;;;;9.23;8.93;;;7.70;99.90;;;;;;5142962;27;20231;-81
2023/10/05 03:38:55;;;;;;;8.90;8.70;;;7.70;99.90;;;;;;5142472;27;20250;-80
2023/10/05 03:41:30;;;;;;;9.10;8.80;;;7.70;99.90;;;;;;5143674;27;20222;-81
2023/10/05 03:44:01;;;;;;;9.03;8.73;;;7.60;99.90;;;;;;5144813;27;20224;-80
2023/10/05 03:46:30;;;;;;;9.10;8.80;;;7.70;99.90;;;;;;5143137;27;20232;-81
2023/10/05 03:49:01;;;;;;;9.10;8.80;;;7.60;99.90;;;;;;5142957;27;20306;-81
2023/10/05 03:51:29;;;;;;;8.97;8.67;;;7.60;99.90;;;;;;5142876;27;20222;-81
2023/10/05 03:53:58;;;;;;;9.30;9.00;;;7.60;99.90;;;;;;5142925;27;20250;-81
2023/10/05 03:56:27;;;;;;;9.13;8.83;;;7.60;99.90;;;;;;5143054;27;20263;-81
2023/10/05 03:58:55;;;;;;;9.30;9.00;;;7.60;99.90;;;;;;5142862;27;20251;-80
2023/10/05 04:01:23;;;;;;;9.00;8.70;;;7.60;99.90;;;;;;5142722;27;20236;-81
2023/10/05 04:03:51;;;;;;;9.00;8.70;;;7.60;99.90;;;;;;5142989;27;20228;-81
2023/10/05 04:06:20;;;;;;;9.20;8.90;;;7.70;99.90;;;;;;5142069;27;20224;-78
2023/10/05 04:08:49;;;;;;;9.10;8.80;;;7.70;99.90;;;;;;5142220;27;20229;-82
2023/10/05 04:11:18;;;;;;;9.33;9.03;;;7.60;99.90;;;;;;5142914;27;20224;-82
2023/10/05 04:13:49;;;;;;;9.20;8.90;;;7.70;99.90;;;;;;5142854;27;20288;-81
2023/10/05 04:16:26;;;;;;;9.10;8.80;;;7.70;99.90;;;;;;5143541;27;20295;-81
2023/10/05 04:18:58;;;;;;;9.30;9.00;;;7.70;99.90;;;;;;5142999;27;20223;-81
2023/10/05 04:21:26;;;;;;;9.30;9.00;;;7.60;99.90;;;;;;5142570;27;20212;-81
2023/10/05 04:23:53;;;;;;;9.33;9.03;;;7.70;99.90;;;;;;5142719;27;20234;-81
2023/10/05 04:26:22;;;;;;;9.23;8.93;;;7.70;99.90;;;;;;5143374;27;20232;-81
2023/10/05 04:28:54;;;;;;;9.20;8.90;;;7.70;99.90;;;;;;5142831;27;20387;-81
2023/10/05 04:31:25;;;;;;;8.90;8.70;;;7.70;99.90;;;;;;5142639;27;20214;-81
2023/10/05 04:33:56;;;;;;;9.13;8.83;;;7.60;99.90;;;;;;5142599;27;20240;-81
2023/10/05 04:36:24;;;;;;;9.17;8.87;;;7.60;99.90;;;;;;5142856;27;20239;-81
2023/10/05 04:38:55;;;;;;;9.30;9.00;;;7.50;99.90;;;;;;5141098;27;20335;-79
2023/10/05 04:41:28;;;;;;;9.13;8.83;;;7.50;99.90;;;;;;5142436;27;20323;-81
2023/10/05 04:43:56;;;;;;;9.23;8.93;;;7.60;99.90;;;;;;5142821;27;20243;-82
2023/10/05 04:46:24;;;;;;;9.00;8.70;;;7.60;99.90;;;;;;5142046;27;20230;-81
2023/10/05 04:49:07;;;;;;;9.07;8.77;;;7.60;99.90;;;;;;5142065;27;20232;-78
2023/10/05 04:51:38;;;;;;;9.10;8.80;;;7.50;99.90;;;;;;5141334;27;20224;-81
2023/10/05 04:54:07;;;;;;;9.03;8.73;;;7.50;99.90;;;;;;5142566;27;20228;-82
2023/10/05 04:56:40;;;;;;;9.23;8.93;;;7.50;99.90;;;;;;5143271;27;20240;-81
2023/10/05 04:59:25;;;;;;;8.87;8.67;;;7.50;99.90;;;;;;5142678;27;20322;-81
2023/10/05 05:02:00;;;;;;;8.77;8.57;;;7.50;99.90;;;;;;5145773;27;20792;-81
2023/10/05 05:04:41;;;;;;;9.00;8.70;;;7.50;99.90;;;;;;5145271;27;20239;-81
2023/10/05 05:07:11;;;;;;;9.20;8.90;;;7.50;99.90;;;;;;5146074;27;20256;-81
2023/10/05 05:09:41;;;;;;;9.80;9.50;;;7.50;99.90;;;;;;5145989;27;20235;-82
2023/10/05 05:12:16;;;;;;;9.70;9.40;;;7.50;99.90;;;;;;5145193;27;20231;-82
2023/10/05 05:14:44;;;;;;;9.67;9.37;;;7.50;99.90;;;;;;5146500;27;20231;-81
2023/10/05 05:17:15;;;;;;;9.20;8.90;;;7.50;99.90;;;;;;5145585;27;20278;-81
2023/10/05 05:19:44;;;;;;;9.50;9.20;;;7.50;99.90;;;;;;5146296;27;20231;-82
2023/10/05 05:22:13;;;;;;;9.90;9.60;;;7.50;99.90;;;;;;5142585;27;20488;-79
2023/10/05 05:24:43;;;;;;;9.57;9.27;;;7.60;99.90;;;;;;5142994;27;20251;-80
2023/10/05 05:27:21;;;;;;;9.50;9.20;;;7.70;99.90;;;;;;5143313;27;20228;-80
2023/10/05 05:29:51;;;;;;;9.47;9.17;;;7.80;99.90;;;;;;5150983;27;20228;-81
2023/10/05 05:32:19;;;;;;;9.70;9.40;;;7.80;99.90;;;;;;5149459;27;21007;-80
2023/10/05 05:34:49;;;;;;;9.47;9.17;;;7.80;99.90;;;;;;5150845;27;20230;-80
2023/10/05 05:37:27;;;;;;;9.70;9.40;;;7.90;99.90;;;;;;5150521;27;20308;-78
2023/10/05 05:39:54;;;;;;;9.33;9.03;;;7.90;99.90;;;;;;5153851;27;20310;-81
2023/10/05 05:42:22;;;;;;;9.37;9.07;;;7.90;99.90;;;;;;5151873;27;20232;-81
2023/10/05 05:44:52;;;;;;;9.13;8.83;;;7.90;99.90;;;;;;5152169;27;20234;-80
2023/10/05 05:47:19;;;;;;;9.07;8.77;;;8.00;99.90;;;;;;5151280;27;20216;-80
2023/10/05 05:49:47;;;;;;;9.13;8.83;;;8.00;99.90;;;;;;5148986;27;20217;-79
2023/10/05 05:52:17;;;;;;;9.00;8.70;;;8.00;99.90;;;;;;5145673;27;20232;-79
2023/10/05 05:54:47;;;;;;;9.00;8.70;;;8.00;99.90;;;;;;5148659;27;20231;-80
2023/10/05 05:57:19;;;;;;;9.40;9.10;;;8.10;99.90;;;;;;5152634;27;20231;-80
2023/10/05 05:59:46;;;;;;;9.37;9.07;;;8.20;99.90;;;;;;5149017;27;20228;-79
2023/10/05 06:02:13;;;;;;;9.30;9.00;;;8.20;99.90;;;;;;5145616;27;20221;-80
2023/10/05 06:04:42;;;;;;;9.20;8.90;;;8.20;99.90;;;;;;5146865;27;20246;-80
2023/10/05 06:07:13;;;;;;;9.47;9.17;;;8.20;99.90;;;;;;5150622;27;20282;-79
2023/10/05 06:09:42;;;;;;;9.07;8.77;;;8.30;99.90;;;;;;5151029;27;20232;-79
2023/10/05 06:12:12;;;;;;;9.30;9.00;;;8.40;99.90;;;;;;5151348;27;20274;-79
2023/10/05 06:14:40;;;;;;;9.30;9.00;;;8.40;99.90;;;;;;5152773;27;20258;-80
2023/10/05 06:17:07;;;;;;;8.97;8.70;;;8.50;99.90;;;;;;5150893;27;20240;-80
2023/10/05 06:19:35;;;;;;;9.50;9.20;;;8.60;99.90;;;;;;5151830;27;20279;-79
2023/10/05 06:22:04;;;;;;;9.47;9.17;;;8.60;99.90;;;;;;5150979;27;20236;-79
2023/10/05 06:24:31;;;;;;;9.33;9.03;;;8.60;99.90;;;;;;5151573;27;20296;-79
2023/10/05 06:26:58;;;;;;;9.40;9.10;;;8.70;99.90;;;;;;5151773;27;20299;-80
2023/10/05 06:29:27;;;;;;;9.40;9.10;;;8.70;99.90;;;;;;5151233;27;20266;-80
2023/10/05 06:32:08;;;;;;;9.40;9.10;;;8.90;99.90;;;;;;5152184;22;20237;-83
2023/10/05 06:34:37;;;;;;;9.43;9.13;;;8.90;99.90;;;;;;5107760;28;20233;-85
2023/10/05 06:37:05;;;;;;;9.50;9.20;;;9.00;99.90;;;;;;5104045;28;20233;-85
2023/10/05 06:42:14;;;;;;;9.83;9.53;;;9.00;99.90;;;;;;5062132;28;20238;-85
2023/10/05 06:44:45;;;;;;;9.53;9.23;;;9.10;99.90;;;;;;5063775;28;21110;-85
2023/10/05 06:47:35;;;;;;;9.50;9.20;;;9.20;99.90;;;;;;5064291;28;20235;-84
2023/10/05 06:50:01;;;;;;;9.40;9.10;;;9.20;99.90;;;;;;5064489;28;20314;-85
2023/10/05 06:52:42;;;;;;;9.50;9.20;;;9.40;99.90;;;;;;5066652;28;20214;-84
2023/10/05 06:55:12;;;;;;;9.50;9.20;;;9.50;99.90;;;;;;5067438;28;20230;-83
2023/10/05 06:57:40;;;;;;;9.70;9.40;;;9.60;99.90;;;;;;5064067;28;20235;-85
2023/10/05 07:00:16;;;;;;;9.77;9.47;;;9.70;99.90;;;;;;5064626;28;20265;-85
2023/10/05 07:02:45;;;;;;;10.00;9.70;;;9.80;99.90;;;;;;5063050;28;20235;-84
2023/10/05 07:05:14;;;;;;;9.90;9.60;;;9.80;99.90;;;;;;5062632;28;20238;-85
2023/10/05 07:07:53;;;;;;;10.23;9.93;;;10.00;99.90;;;;;;5063533;28;20679;-85
2023/10/05 07:10:22;;;;;;;10.50;10.20;;;10.10;99.90;;;;;;5062738;28;20227;-85
2023/10/05 07:13:01;;;;;;;10.50;10.20;;;10.20;99.90;;;;;;5062998;28;20301;-85
2023/10/05 07:15:33;;;;;;;10.40;10.10;;;10.30;99.90;;;;;;5064182;28;20235;-85
2023/10/05 07:18:00;;;;;;;10.70;10.40;;;10.40;99.90;;;;;;5063898;28;20227;-85
2023/10/05 07:20:29;;;;;;;10.70;10.40;;;10.50;99.90;;;;;;5064127;28;20249;-85
2023/10/05 07:22:59;;;;;;;10.60;10.30;;;10.70;99.90;;;;;;5061748;28;20235;-85
2023/10/05 07:25:27;;;;;;;10.67;10.37;;;10.80;99.90;;;;;;5061952;28;20265;-85
2023/10/05 07:28:13;;;;;;;10.70;10.40;;;10.90;99.90;;;;;;5061973;28;20223;-85
2023/10/05 07:36:28;;;;;;;10.70;10.40;;;11.10;99.90;;;;;;5111008;28;20685;-85
2023/10/05 07:38:57;;;;;;;10.43;10.13;;;11.10;99.90;;;;;;5102931;28;20229;-85
2023/10/05 07:41:28;;;;;;;10.70;10.40;;;11.10;99.90;;;;;;5110513;28;20247;-85
2023/10/05 07:43:56;;;;;;;10.60;10.30;;;11.10;99.90;;;;;;5115550;28;20200;-85
2023/10/05 07:49:21;;;;;;;10.40;10.10;;;11.30;99.90;;;;;;5102545;28;20215;-85
2023/10/05 07:51:50;;;;;;;10.43;10.13;;;11.50;99.90;;;;;;5106423;28;20233;-85
2023/10/05 07:54:28;;;;;;;10.33;10.03;;;11.60;99.90;;;;;;5104416;28;20248;-85
2023/10/05 07:56:57;;;;;;;10.70;10.40;;;11.70;99.90;;;;;;5103887;28;20283;-86
2023/10/05 07:59:27;;;;;;;10.43;10.13;;;11.80;99.90;;;;;;5102674;28;20367;-85
2023/10/05 08:02:01;;;;;;;10.47;10.17;;;11.90;99.90;;;;;;5102749;28;20233;-85
2023/10/05 08:04:28;;;;;;;10.50;10.20;;;12.10;99.90;;;;;;5102244;28;20224;-86
2023/10/05 08:06:56;;;;;;;10.50;10.20;;;12.20;99.90;;;;;;5102798;28;20229;-85
2023/10/05 08:09:26;;;;;;;10.43;10.13;;;12.20;99.90;;;;;;5102994;28;20236;-86
2023/10/05 08:11:56;;;;;;;10.40;10.10;;;12.40;99.90;;;;;;5102428;28;20319;-85
2023/10/05 08:14:24;;;;;;;10.40;10.10;;;12.60;99.90;;;;;;5102404;28;20225;-85
2023/10/05 08:16:55;;;;;;;10.37;10.07;;;12.60;99.90;;;;;;5104424;28;20241;-85
2023/10/05 08:19:26;;;;;;;10.30;10.00;;;12.60;99.90;;;;;;5103823;28;20323;-86
2023/10/05 08:21:53;;;;;;;10.30;10.00;;;12.70;99.90;;;;;;5103578;28;20237;-84
2023/10/05 08:24:23;;;;;;;10.40;10.10;;;12.90;99.90;;;;;;5103052;28;20222;-85
2023/10/05 08:26:51;;;;;;;10.33;10.03;;;13.10;99.90;;;;;;5104709;28;20217;-86
2023/10/05 08:29:32;;;;;;;10.30;10.00;;;13.30;99.90;;;;;;5104902;28;20288;-86
2023/10/05 08:32:01;;;;;;;10.30;10.00;;;13.60;99.90;;;;;;5101841;28;20264;-86
2023/10/05 08:37:15;;;;;;;10.97;10.67;;;14.00;99.90;;;;;;5106354;28;20225;-86
2023/10/05 08:39:56;;;;;;;10.90;10.60;;;14.20;99.90;;;;;;5106567;28;20240;-86
2023/10/05 08:45:28;;;;;;;10.20;9.90;;;14.30;99.90;;;;;;5160468;27;1342627;-84
2023/10/05 08:47:59;;;;;;;10.30;10.00;;;14.50;99.90;;;;;;5183102;27;20231;-87
2023/10/05 08:50:35;;;;;;;10.10;9.80;;;14.70;99.90;;;;;;5181169;27;20214;-88
2023/10/05 08:55:47;;;;;;;10.20;9.90;;;15.30;99.90;;;;;;5161713;27;20676;-88
2023/10/05 08:58:18;;;;;;;10.27;9.98;;;15.50;99.90;;;;;;5161755;27;20241;-87
2023/10/05 09:06:20;;;;;;;10.80;10.50;;;15.80;99.90;;;;;;5117895;28;20229;-88
2023/10/05 09:11:36;;;;;;;11.00;10.70;;;16.20;99.90;;;;;;5117854;28;20225;-87
2023/10/05 09:17:08;;;;;;;10.73;10.43;;;16.60;99.90;;;;;;5113906;28;20221;-87
2023/10/05 09:19:46;;;;;;;11.00;10.70;;;16.70;99.90;;;;;;5115506;28;20233;-86
2023/10/05 09:22:22;;;;;;;10.88;10.57;;;16.90;99.90;;;;;;5119048;28;20229;-87
2023/10/05 09:24:55;;;;;;;10.50;10.20;;;17.10;99.90;;;;;;5116861;28;20233;-86
2023/10/05 09:27:50;;;;;;;10.73;10.43;;;17.40;99.90;;;;;;5120199;28;20229;-86
2023/10/05 09:30:21;;;;;;;10.35;10.05;;;17.60;99.90;;;;;;5121137;28;20229;-86
2023/10/05 09:33:10;;;;;;;10.80;10.50;;;17.50;99.90;;;;;;5126795;28;20253;-86
2023/10/05 09:35:38;;;;;;;10.45;10.15;;;17.50;99.90;;;;;;5134952;27;20274;-87
2023/10/05 09:38:24;;;;;;;10.40;10.10;;;17.40;99.90;;;;;;5135892;27;20217;-86
2023/10/05 09:40:55;;;;;;;10.60;10.30;;;17.40;99.90;;;;;;5134218;28;20255;-85
2023/10/05 09:43:24;;;;;;;10.23;9.93;;;17.10;99.90;;;;;;5135228;27;20221;-90
2023/10/05 09:45:53;;;;;;;10.15;9.85;;;16.90;99.90;;;;;;5134992;27;20209;-88
2023/10/05 09:48:39;;;;;;;10.38;10.07;;;16.70;99.90;;;;;;5135543;27;20296;-90
2023/10/05 09:51:10;;;;;;;10.50;10.20;;;16.40;99.90;;;;;;5135444;28;20213;-89
2023/10/05 09:56:33;;;;;;;10.88;10.57;;;16.10;99.90;;;;;;5120258;28;20213;-88
2023/10/05 09:59:03;;;;;;;10.75;10.45;;;16.10;99.90;;;;;;5117737;28;20231;-89
2023/10/05 10:01:32;;;;;;;10.55;10.25;;;16.00;99.90;;;;;;5102759;28;20244;-86
2023/10/05 10:06:53;;;;;;;10.60;10.30;;;15.90;99.90;;;;;;5102777;28;20226;-89
2023/10/05 10:12:10;;;;;;;9.95;9.65;;;16.00;99.90;;;;;;5102405;28;20221;-89
2023/10/05 10:14:44;;;;;;;10.10;9.80;;;16.40;99.90;;;;;;5112120;28;20289;-88
2023/10/05 10:17:24;;;;;;;10.10;9.80;;;16.60;99.90;;;;;;5122586;28;20214;-91
2023/10/05 10:20:34;;;;;;;10.05;9.75;;;16.90;99.90;;;;;;5117011;28;20237;-88
2023/10/05 10:23:00;;;;;;;10.50;10.20;;;16.90;99.90;;;;;;5104889;28;20229;-86
2023/10/05 10:25:38;;;;;;;10.00;9.70;;;16.70;99.90;;;;;;5104592;28;20324;-84
2023/10/05 10:28:20;;;;;;;10.20;9.90;;;16.90;99.90;;;;;;5103907;28;20217;-86
2023/10/05 10:30:50;;;;;;;10.10;9.80;;;16.90;99.90;;;;;;5105233;28;20233;-85
2023/10/05 10:33:30;;;;;;;10.50;10.20;;;17.10;99.90;;;;;;5107115;28;20287;-86
2023/10/05 10:36:00;;;;;;;10.30;10.00;;;17.30;99.90;;;;;;5106183;28;20232;-86
2023/10/05 10:38:27;;;;;;;10.30;10.00;;;17.10;99.90;;;;;;5104743;28;20258;-87
2023/10/05 10:41:17;;;;;;;10.30;10.00;;;16.80;99.90;;;;;;5104648;28;20234;-87
2023/10/05 10:46:34;;;;;;;10.40;10.10;;;17.00;99.90;;;;;;5107280;28;20252;-86
2023/10/05 10:49:07;;;;;;;10.55;10.25;;;17.00;99.90;;;;;;5105611;28;20764;-86
2023/10/05 10:51:48;;;;;;;10.25;9.95;;;17.10;99.90;;;;;;5103830;28;20295;-86
2023/10/05 10:54:21;;;;;;;10.70;10.40;;;17.00;99.90;;;;;;5104666;28;20241;-87
2023/10/05 10:56:54;;;;;;;10.50;10.20;;;17.10;99.90;;;;;;5105211;28;20226;-87
2023/10/05 10:59:41;;;;;;;10.52;10.23;;;17.00;99.90;;;;;;5103609;28;20716;-86
2023/10/05 11:02:12;;;;;;;10.50;10.20;;;16.90;99.90;;;;;;5103267;28;20237;-86
2023/10/05 11:04:51;;;;;;;10.57;10.27;;;17.00;99.90;;;;;;5104754;28;20312;-85
2023/10/05 11:07:23;;;;;;;10.45;10.15;;;17.00;99.90;;;;;;5101880;28;20251;-87
2023/10/05 11:09:52;;;;;;;10.57;10.27;;;17.00;99.90;;;;;;5104592;28;20321;-86
2023/10/05 11:12:22;;;;;;;10.65;10.35;;;17.20;99.90;;;;;;5104034;28;20237;-86
2023/10/05 11:14:56;;;;;;;10.73;10.43;;;17.40;99.90;;;;;;5103982;28;20282;-87
2023/10/05 11:17:46;;;;;;;10.70;10.40;;;17.60;99.90;;;;;;5104453;28;20236;-85
2023/10/05 11:20:24;;;;;;;10.18;9.88;;;17.80;99.90;;;;;;5105070;28;20229;-85
2023/10/05 11:28:26;;;;;;;10.10;9.80;;;17.70;99.90;;;;;;5104638;28;20220;-86
2023/10/05 11:30:55;;;;;;;10.00;9.70;;;17.90;99.90;;;;;;5105482;28;20252;-87
2023/10/05 11:33:35;;;;;;;10.07;9.77;;;17.90;99.90;;;;;;5104649;28;20260;-87
2023/10/05 11:36:17;;;;;;;10.50;10.20;;;17.90;99.90;;;;;;5110603;28;20243;-88
2023/10/05 11:38:57;;;;;;;10.80;10.50;;;17.80;99.90;;;;;;5119031;28;20217;-85
2023/10/05 11:41:39;;;;;;;10.68;10.38;;;17.70;99.90;;;;;;5103007;28;20233;-86
2023/10/05 11:44:11;;;;;;;10.52;10.23;;;17.70;99.90;;;;;;5105035;28;20285;-89
2023/10/05 11:46:55;;;;;;;10.40;10.10;;;17.80;99.90;;;;;;5104144;28;20321;-88
2023/10/05 11:49:27;;;;;;;10.50;10.20;;;17.70;99.90;;;;;;5103778;28;20217;-88
2023/10/05 11:57:29;;;;;;;10.63;10.32;;;17.30;99.90;;;;;;5104027;28;20229;-87
2023/10/05 11:59:59;;;;;;;10.50;10.20;;;17.20;99.90;;;;;;5104835;28;20232;-87
2023/10/05 12:02:27;;;;;;;10.25;9.95;;;17.20;99.90;;;;;;5102708;28;20297;-87
2023/10/05 12:04:55;;;;;;;10.43;10.13;;;17.20;99.90;;;;;;5102682;28;20244;-86
2023/10/05 12:07:34;;;;;;;10.30;10.00;;;17.20;99.90;;;;;;5104421;28;20252;-87
2023/10/05 12:12:50;;;;;;;10.55;10.25;;;17.10;99.90;;;;;;5101718;28;20908;-87
2023/10/05 12:18:12;;;;;;;10.50;10.20;;;16.80;99.90;;;;;;5102393;28;20389;-89
2023/10/05 12:20:46;;;;;;;10.70;10.40;;;16.80;99.90;;;;;;5104053;28;20221;-89
2023/10/05 12:23:15;;;;;;;10.20;9.90;;;16.70;99.90;;;;;;5115183;28;20238;-91
2023/10/05 12:25:46;;;;;;;10.20;9.90;;;16.60;99.90;;;;;;5116636;28;20218;-89
2023/10/05 12:28:21;;;;;;;10.13;9.82;;;16.60;99.90;;;;;;5106289;28;20237;-90
2023/10/05 12:33:32;;;;;;;10.25;9.95;;;17.00;99.90;;;;;;5109922;22;20289;-83
2023/10/05 12:36:02;;;;;;;10.40;10.10;;;16.90;99.90;;;;;;5087068;28;20253;-82
2023/10/05 12:38:30;;;;;;;10.30;10.00;;;16.80;99.90;;;;;;5087391;28;20260;-83
2023/10/05 12:41:12;;;;;;;10.52;10.23;;;16.80;99.90;;;;;;5087626;28;20238;-83
2023/10/05 12:43:42;;;;;;;10.23;9.93;;;16.90;99.90;;;;;;5083651;28;20229;-83
2023/10/05 12:46:11;;;;;;;10.10;9.80;;;16.90;99.90;;;;;;5080214;28;20241;-83
2023/10/05 12:48:39;;;;;;;10.50;10.20;;;16.80;99.90;;;;;;5084180;28;20288;-82
2023/10/05 12:51:08;;;;;;;10.50;10.20;;;16.60;99.90;;;;;;5084700;28;20236;-83
2023/10/05 12:53:37;;;;;;;10.38;10.07;;;16.50;99.90;;;;;;5084682;28;20240;-83
2023/10/05 12:56:11;;;;;;;10.20;9.90;;;16.70;99.90;;;;;;5084292;28;20237;-83
2023/10/05 13:04:08;;;;;;;10.00;9.70;;;16.90;99.90;;;;;;5083707;28;20218;-85
2023/10/05 13:06:38;;;;;;;10.02;9.73;;;16.90;99.90;;;;;;5071299;28;20231;-82
2023/10/05 13:09:19;;;;;;;9.90;9.60;;;16.70;99.90;;;;;;5072624;28;20222;-81
2023/10/05 13:11:48;;;;;;;10.18;9.88;;;16.70;99.90;;;;;;5062497;28;20242;-83
2023/10/05 13:14:16;;;;;;;10.05;9.75;;;16.60;99.90;;;;;;5086143;28;20222;-82
2023/10/05 13:16:48;;;;;;;9.93;9.63;;;16.50;99.90;;;;;;5071274;28;20250;-81
2023/10/05 13:19:24;;;;;;;10.10;9.80;;;16.50;99.90;;;;;;5069886;28;20269;-81
2023/10/05 13:21:52;;;;;;;10.40;10.10;;;16.50;99.90;;;;;;5068375;28;20241;-81
2023/10/05 13:24:23;;;;;;;9.90;9.60;;;16.50;99.90;;;;;;5065280;28;20258;-81
2023/10/05 13:26:53;;;;;;;9.77;9.48;;;16.40;99.90;;;;;;5083514;28;20230;-82
2023/10/05 13:29:36;;;;;;;10.10;9.80;;;16.30;99.90;;;;;;5082595;28;20269;-82
2023/10/05 13:32:09;;;;;;;10.07;9.77;;;16.20;99.90;;;;;;5072416;28;20245;-82
2023/10/05 13:34:36;;;;;;;9.80;9.50;;;16.20;99.90;;;;;;5073651;28;20222;-85
2023/10/05 13:37:08;;;;;;;9.77;9.48;;;16.30;99.90;;;;;;5070431;28;20234;-84
2023/10/05 13:39:35;;;;;;;10.07;9.77;;;16.10;99.90;;;;;;5068008;28;20331;-83
2023/10/05 13:42:11;;;;;;;9.70;9.40;;;16.10;99.90;;;;;;5070340;28;20218;-83
2023/10/05 13:44:39;;;;;;;9.80;9.50;;;16.10;99.90;;;;;;5086091;28;20225;-82
2023/10/05 13:47:11;;;;;;;9.90;9.60;;;16.20;99.90;;;;;;5087276;28;20328;-82
2023/10/05 13:49:46;;;;;;;9.90;9.60;;;16.10;99.90;;;;;;5087288;28;20286;-82
2023/10/05 13:52:20;;;;;;;9.90;9.60;;;16.20;99.90;;;;;;5087517;28;20233;-81
2023/10/05 13:54:48;;;;;;;9.52;9.23;;;16.10;99.90;;;;;;5087345;28;20245;-82
2023/10/05 13:57:20;;;;;;;9.48;9.18;;;16.00;99.90;;;;;;5086723;28;20237;-83
2023/10/05 13:59:49;;;;;;;9.52;9.23;;;16.00;99.90;;;;;;5090540;28;20264;-83
2023/10/05 14:02:16;;;;;;;9.80;9.50;;;16.00;99.90;;;;;;5089206;28;20238;-82
2023/10/05 14:04:44;;;;;;;9.77;9.48;;;16.10;99.90;;;;;;5081248;28;20281;-82
2023/10/05 14:07:13;;;;;;;10.00;9.70;;;16.20;99.90;;;;;;5074805;28;20245;-83
2023/10/05 14:09:45;;;;;;;9.82;9.52;;;16.30;99.90;;;;;;5075022;28;20235;-83
2023/10/05 14:12:24;;;;;;;9.70;9.40;;;16.30;99.90;;;;;;5075687;28;20348;-83
2023/10/05 14:15:02;;;;;;;10.10;9.80;;;16.30;99.90;;;;;;5085491;28;20225;-83
2023/10/05 14:17:35;;;;;;;9.98;9.68;;;16.20;99.90;;;;;;5087124;28;20236;-83